Coopers Mills, Maine
Current Conditions -  °F | °C
As of 3:53 AM on Saturday 22 Nov 2014 (Local Time) from KAUG Reporting Station
Clear Clear  
Wind Chill: 19°   Ceiling: Unl
Heat Index: 19°   Visibility: 10mi
Dew Point:   Wind: 0mph
Humidity: 59%   Direction: NA
Pressure: 30.31"   Gusts: NA
Location:  44.26°N, 69.55°W
Report Text: KAUG 220853Z AUTO 00000KT 10SM CLR M07/M14 A3031 RMK AO2 SLP270 T10721139 50002
Loading
Personal Weather Stations






























Interactive Weather Map New forecast layout! Learn more

10-Day Weather Forecast

Advertisements
Track Severe Weather on mobile